sensor_id;sensor_type;location;lat;lon;timestamp;temperature;humidity
68235;DHT22;55052;52.056;5.296;2023-10-09T00:01:06;15.70;91.60
68235;DHT22;55052;52.056;5.296;2023-10-09T00:03:44;15.70;91.60
68235;DHT22;55052;52.056;5.296;2023-10-09T00:06:12;15.70;91.60
68235;DHT22;55052;52.056;5.296;2023-10-09T00:08:40;15.70;91.60
68235;DHT22;55052;52.056;5.296;2023-10-09T00:11:11;15.70;91.60
68235;DHT22;55052;52.056;5.296;2023-10-09T00:13:42;15.70;91.60
68235;DHT22;55052;52.056;5.296;2023-10-09T00:16:20;15.70;91.60
68235;DHT22;55052;52.056;5.296;2023-10-09T00:19:04;15.70;91.60
68235;DHT22;55052;52.056;5.296;2023-10-09T00:21:41;15.70;91.60
68235;DHT22;55052;52.056;5.296;2023-10-09T00:24:08;15.70;91.50
68235;DHT22;55052;52.056;5.296;2023-10-09T00:26:46;15.60;91.50
68235;DHT22;55052;52.056;5.296;2023-10-09T00:29:13;15.70;91.50
68235;DHT22;55052;52.056;5.296;2023-10-09T00:31:42;15.60;91.40
68235;DHT22;55052;52.056;5.296;2023-10-09T00:34:17;15.60;91.40
68235;DHT22;55052;52.056;5.296;2023-10-09T00:36:48;15.60;91.40
68235;DHT22;55052;52.056;5.296;2023-10-09T00:39:19;15.60;91.30
68235;DHT22;55052;52.056;5.296;2023-10-09T00:42:04;15.50;91.30
68235;DHT22;55052;52.056;5.296;2023-10-09T00:44:33;15.50;91.30
68235;DHT22;55052;52.056;5.296;2023-10-09T00:47:10;15.50;91.30
68235;DHT22;55052;52.056;5.296;2023-10-09T00:49:57;15.50;91.30
68235;DHT22;55052;52.056;5.296;2023-10-09T00:52:38;15.40;91.20
68235;DHT22;55052;52.056;5.296;2023-10-09T00:55:20;15.40;91.20
68235;DHT22;55052;52.056;5.296;2023-10-09T00:58:06;15.40;91.20
68235;DHT22;55052;52.056;5.296;2023-10-09T01:00:40;15.40;91.20
68235;DHT22;55052;52.056;5.296;2023-10-09T01:03:11;15.40;91.20
68235;DHT22;55052;52.056;5.296;2023-10-09T01:05:59;15.30;91.60
68235;DHT22;55052;52.056;5.296;2023-10-09T01:08:35;15.30;91.20
68235;DHT22;55052;52.056;5.296;2023-10-09T01:11:13;15.30;91.60
68235;DHT22;55052;52.056;5.296;2023-10-09T01:13:50;15.30;91.30
68235;DHT22;55052;52.056;5.296;2023-10-09T01:16:18;15.30;91.30
68235;DHT22;55052;52.056;5.296;2023-10-09T01:18:50;15.30;91.30
68235;DHT22;55052;52.056;5.296;2023-10-09T01:21:17;15.30;91.30
68235;DHT22;55052;52.056;5.296;2023-10-09T01:23:45;15.30;91.30
68235;DHT22;55052;52.056;5.296;2023-10-09T01:26:34;15.30;91.40
68235;DHT22;55052;52.056;5.296;2023-10-09T01:29:07;15.30;91.40
68235;DHT22;55052;52.056;5.296;2023-10-09T01:31:48;15.30;91.40
68235;DHT22;55052;52.056;5.296;2023-10-09T01:34:34;15.30;91.40
68235;DHT22;55052;52.056;5.296;2023-10-09T01:37:13;15.30;91.40
68235;DHT22;55052;52.056;5.296;2023-10-09T01:39:50;15.30;91.50
68235;DHT22;55052;52.056;5.296;2023-10-09T01:42:19;15.30;91.50
68235;DHT22;55052;52.056;5.296;2023-10-09T01:45:02;15.30;91.50
68235;DHT22;55052;52.056;5.296;2023-10-09T01:47:38;15.30;91.50
68235;DHT22;55052;52.056;5.296;2023-10-09T01:50:06;15.40;91.60
68235;DHT22;55052;52.056;5.296;2023-10-09T01:52:40;15.40;91.60
68235;DHT22;55052;52.056;5.296;2023-10-09T01:55:09;15.40;91.60
68235;DHT22;55052;52.056;5.296;2023-10-09T01:57:40;15.40;91.60
68235;DHT22;55052;52.056;5.296;2023-10-09T02:00:11;15.40;91.60
68235;DHT22;55052;52.056;5.296;2023-10-09T02:02:43;15.40;91.60
68235;DHT22;55052;52.056;5.296;2023-10-09T02:05:11;15.40;91.70
68235;DHT22;55052;52.056;5.296;2023-10-09T02:07:42;15.50;91.70
68235;DHT22;55052;52.056;5.296;2023-10-09T02:10:19;15.50;91.60
68235;DHT22;55052;52.056;5.296;2023-10-09T02:12:57;15.50;91.70
68235;DHT22;55052;52.056;5.296;2023-10-09T02:15:31;15.50;91.70
68235;DHT22;55052;52.056;5.296;2023-10-09T02:18:27;15.50;91.70
68235;DHT22;55052;52.056;5.296;2023-10-09T02:21:14;15.50;91.70
68235;DHT22;55052;52.056;5.296;2023-10-09T02:23:41;15.50;91.70
68235;DHT22;55052;52.056;5.296;2023-10-09T02:26:12;15.50;91.70
68235;DHT22;55052;52.056;5.296;2023-10-09T02:28:58;15.50;91.70
68235;DHT22;55052;52.056;5.296;2023-10-09T02:31:47;15.50;91.70
68235;DHT22;55052;52.056;5.296;2023-10-09T02:34:18;15.50;91.70
68235;DHT22;55052;52.056;5.296;2023-10-09T02:36:52;15.50;91.80
68235;DHT22;55052;52.056;5.296;2023-10-09T02:39:31;15.50;91.80
68235;DHT22;55052;52.056;5.296;2023-10-09T02:42:09;15.50;91.80
68235;DHT22;55052;52.056;5.296;2023-10-09T02:44:39;15.60;91.90
68235;DHT22;55052;52.056;5.296;2023-10-09T02:47:13;15.60;91.80
68235;DHT22;55052;52.056;5.296;2023-10-09T02:49:48;15.60;91.90
68235;DHT22;55052;52.056;5.296;2023-10-09T02:52:15;15.60;91.80
68235;DHT22;55052;52.056;5.296;2023-10-09T02:54:46;15.60;91.90
68235;DHT22;55052;52.056;5.296;2023-10-09T02:57:19;15.60;91.90
68235;DHT22;55052;52.056;5.296;2023-10-09T02:59:50;15.60;91.90
68235;DHT22;55052;52.056;5.296;2023-10-09T03:02:19;15.70;91.90
68235;DHT22;55052;52.056;5.296;2023-10-09T03:04:45;15.70;91.90
68235;DHT22;55052;52.056;5.296;2023-10-09T03:07:12;15.70;91.90
68235;DHT22;55052;52.056;5.296;2023-10-09T03:09:40;15.70;91.90
68235;DHT22;55052;52.056;5.296;2023-10-09T03:12:07;15.70;92.00
68235;DHT22;55052;52.056;5.296;2023-10-09T03:14:39;15.70;92.00
68235;DHT22;55052;52.056;5.296;2023-10-09T03:17:08;15.70;92.00
68235;DHT22;55052;52.056;5.296;2023-10-09T03:19:41;15.70;92.10
68235;DHT22;55052;52.056;5.296;2023-10-09T03:22:10;15.70;92.10
68235;DHT22;55052;52.056;5.296;2023-10-09T03:24:39;15.80;92.20
68235;DHT22;55052;52.056;5.296;2023-10-09T03:27:16;15.80;92.20
68235;DHT22;55052;52.056;5.296;2023-10-09T03:29:43;15.80;92.20
68235;DHT22;55052;52.056;5.296;2023-10-09T03:32:16;15.90;92.30
68235;DHT22;55052;52.056;5.296;2023-10-09T03:34:43;15.90;92.30
68235;DHT22;55052;52.056;5.296;2023-10-09T03:37:11;15.90;92.30
68235;DHT22;55052;52.056;5.296;2023-10-09T03:39:49;16.00;92.40
68235;DHT22;55052;52.056;5.296;2023-10-09T03:42:18;16.00;92.40
68235;DHT22;55052;52.056;5.296;2023-10-09T03:44:49;16.00;92.50
68235;DHT22;55052;52.056;5.296;2023-10-09T03:47:20;16.00;92.60
68235;DHT22;55052;52.056;5.296;2023-10-09T03:49:51;16.10;92.70
68235;DHT22;55052;52.056;5.296;2023-10-09T03:52:20;16.10;92.80
68235;DHT22;55052;52.056;5.296;2023-10-09T03:54:51;16.20;92.80
68235;DHT22;55052;52.056;5.296;2023-10-09T03:57:18;16.20;92.90
68235;DHT22;55052;52.056;5.296;2023-10-09T03:59:46;16.20;92.90
68235;DHT22;55052;52.056;5.296;2023-10-09T04:02:16;16.30;93.00
68235;DHT22;55052;52.056;5.296;2023-10-09T04:04:43;16.30;93.00
68235;DHT22;55052;52.056;5.296;2023-10-09T04:07:17;16.40;93.10
68235;DHT22;55052;52.056;5.296;2023-10-09T04:09:44;16.40;93.10
68235;DHT22;55052;52.056;5.296;2023-10-09T04:12:36;16.50;93.20
68235;DHT22;55052;52.056;5.296;2023-10-09T04:15:06;16.50;93.20
68235;DHT22;55052;52.056;5.296;2023-10-09T04:17:41;16.50;93.20
68235;DHT22;55052;52.056;5.296;2023-10-09T04:20:10;16.60;93.20
68235;DHT22;55052;52.056;5.296;2023-10-09T04:22:46;16.60;93.20
68235;DHT22;55052;52.056;5.296;2023-10-09T04:25:32;16.70;93.30
68235;DHT22;55052;52.056;5.296;2023-10-09T04:28:09;16.70;93.30
68235;DHT22;55052;52.056;5.296;2023-10-09T04:30:39;16.70;93.30
68235;DHT22;55052;52.056;5.296;2023-10-09T04:33:25;16.70;93.30
68235;DHT22;55052;52.056;5.296;2023-10-09T04:38:52;16.80;93.20
68235;DHT22;55052;52.056;5.296;2023-10-09T04:41:31;16.80;93.30
68235;DHT22;55052;52.056;5.296;2023-10-09T04:44:19;16.80;93.30
68235;DHT22;55052;52.056;5.296;2023-10-09T04:46:51;16.80;93.30
68235;DHT22;55052;52.056;5.296;2023-10-09T04:49:39;16.90;93.30
68235;DHT22;55052;52.056;5.296;2023-10-09T04:52:28;16.90;93.40
68235;DHT22;55052;52.056;5.296;2023-10-09T04:54:55;16.90;93.40
68235;DHT22;55052;52.056;5.296;2023-10-09T04:57:44;16.90;93.30
68235;DHT22;55052;52.056;5.296;2023-10-09T05:00:15;16.90;93.30
68235;DHT22;55052;52.056;5.296;2023-10-09T05:05:28;17.00;93.40
68235;DHT22;55052;52.056;5.296;2023-10-09T05:08:13;17.00;93.40
68235;DHT22;55052;52.056;5.296;2023-10-09T05:11:00;17.00;93.30
68235;DHT22;55052;52.056;5.296;2023-10-09T05:13:36;17.00;93.40
68235;DHT22;55052;52.056;5.296;2023-10-09T05:18:55;17.10;93.50
68235;DHT22;55052;52.056;5.296;2023-10-09T05:21:39;17.10;93.60
68235;DHT22;55052;52.056;5.296;2023-10-09T05:24:10;17.10;93.70
68235;DHT22;55052;52.056;5.296;2023-10-09T05:26:46;17.20;93.70
68235;DHT22;55052;52.056;5.296;2023-10-09T05:31:46;17.20;93.70
68235;DHT22;55052;52.056;5.296;2023-10-09T05:34:32;17.20;93.70
68235;DHT22;55052;52.056;5.296;2023-10-09T05:37:04;17.30;93.80
68235;DHT22;55052;52.056;5.296;2023-10-09T05:39:52;17.30;93.80
68235;DHT22;55052;52.056;5.296;2023-10-09T05:42:30;17.30;93.80
68235;DHT22;55052;52.056;5.296;2023-10-09T05:45:13;17.40;93.80
68235;DHT22;55052;52.056;5.296;2023-10-09T05:47:58;17.40;93.90
68235;DHT22;55052;52.056;5.296;2023-10-09T05:50:51;17.40;93.80
68235;DHT22;55052;52.056;5.296;2023-10-09T05:53:36;17.40;93.80
68235;DHT22;55052;52.056;5.296;2023-10-09T05:56:12;17.50;93.90
68235;DHT22;55052;52.056;5.296;2023-10-09T05:58:58;17.50;93.90
68235;DHT22;55052;52.056;5.296;2023-10-09T06:01:43;17.50;93.90
68235;DHT22;55052;52.056;5.296;2023-10-09T06:04:25;17.50;93.90
68235;DHT22;55052;52.056;5.296;2023-10-09T06:07:11;17.60;93.90
68235;DHT22;55052;52.056;5.296;2023-10-09T06:09:40;17.60;93.90
68235;DHT22;55052;52.056;5.296;2023-10-09T06:12:21;17.60;93.90
68235;DHT22;55052;52.056;5.296;2023-10-09T06:14:56;17.70;93.90
68235;DHT22;55052;52.056;5.296;2023-10-09T06:17:54;17.60;93.90
68235;DHT22;55052;52.056;5.296;2023-10-09T06:20:26;17.70;93.90
68235;DHT22;55052;52.056;5.296;2023-10-09T06:23:12;17.70;93.80
68235;DHT22;55052;52.056;5.296;2023-10-09T06:26:04;17.70;93.80
68235;DHT22;55052;52.056;5.296;2023-10-09T06:28:51;17.70;93.80
68235;DHT22;55052;52.056;5.296;2023-10-09T06:31:38;17.70;93.80
68235;DHT22;55052;52.056;5.296;2023-10-09T06:34:23;17.70;93.70
68235;DHT22;55052;52.056;5.296;2023-10-09T06:37:00;17.70;93.70
68235;DHT22;55052;52.056;5.296;2023-10-09T06:39:34;17.70;93.70
68235;DHT22;55052;52.056;5.296;2023-10-09T06:42:19;17.80;93.70
68235;DHT22;55052;52.056;5.296;2023-10-09T06:45:12;17.80;93.70
68235;DHT22;55052;52.056;5.296;2023-10-09T06:47:38;17.80;93.70
68235;DHT22;55052;52.056;5.296;2023-10-09T06:50:10;17.80;93.70
68235;DHT22;55052;52.056;5.296;2023-10-09T06:52:48;17.80;93.70
68235;DHT22;55052;52.056;5.296;2023-10-09T06:55:25;17.80;93.60
68235;DHT22;55052;52.056;5.296;2023-10-09T06:58:03;17.80;94.10
68235;DHT22;55052;52.056;5.296;2023-10-09T07:00:39;17.80;93.70
68235;DHT22;55052;52.056;5.296;2023-10-09T07:03:28;17.90;93.70
68235;DHT22;55052;52.056;5.296;2023-10-09T07:06:08;17.90;93.70
68235;DHT22;55052;52.056;5.296;2023-10-09T07:08:53;17.90;93.70
68235;DHT22;55052;52.056;5.296;2023-10-09T07:11:32;18.00;93.70
68235;DHT22;55052;52.056;5.296;2023-10-09T07:14:10;18.00;93.70
68235;DHT22;55052;52.056;5.296;2023-10-09T07:17:03;18.00;93.80
68235;DHT22;55052;52.056;5.296;2023-10-09T07:19:50;18.00;93.70
68235;DHT22;55052;52.056;5.296;2023-10-09T07:22:18;18.00;93.80
68235;DHT22;55052;52.056;5.296;2023-10-09T07:24:49;18.00;93.80
68235;DHT22;55052;52.056;5.296;2023-10-09T07:27:20;18.00;93.80
68235;DHT22;55052;52.056;5.296;2023-10-09T07:30:07;18.10;93.80
68235;DHT22;55052;52.056;5.296;2023-10-09T07:32:53;18.10;93.80
68235;DHT22;55052;52.056;5.296;2023-10-09T07:35:22;18.10;93.80
68235;DHT22;55052;52.056;5.296;2023-10-09T07:38:17;18.10;93.80
68235;DHT22;55052;52.056;5.296;2023-10-09T07:40:48;18.10;93.80
68235;DHT22;55052;52.056;5.296;2023-10-09T07:43:38;18.10;93.80
68235;DHT22;55052;52.056;5.296;2023-10-09T07:46:16;18.10;93.90
68235;DHT22;55052;52.056;5.296;2023-10-09T07:49:19;18.20;93.90
68235;DHT22;55052;52.056;5.296;2023-10-09T07:51:52;18.20;93.90
68235;DHT22;55052;52.056;5.296;2023-10-09T07:54:25;18.20;93.90
68235;DHT22;55052;52.056;5.296;2023-10-09T07:57:20;18.30;94.00
68235;DHT22;55052;52.056;5.296;2023-10-09T07:59:52;18.30;94.00
68235;DHT22;55052;52.056;5.296;2023-10-09T08:02:28;18.30;94.00
68235;DHT22;55052;52.056;5.296;2023-10-09T08:05:02;18.40;94.00
68235;DHT22;55052;52.056;5.296;2023-10-09T08:07:33;18.50;94.00
68235;DHT22;55052;52.056;5.296;2023-10-09T08:10:23;18.50;94.00
68235;DHT22;55052;52.056;5.296;2023-10-09T08:12:50;18.50;94.00
68235;DHT22;55052;52.056;5.296;2023-10-09T08:15:18;18.60;94.00
68235;DHT22;55052;52.056;5.296;2023-10-09T08:17:55;18.60;93.90
68235;DHT22;55052;52.056;5.296;2023-10-09T08:20:51;18.70;93.90
68235;DHT22;55052;52.056;5.296;2023-10-09T08:23:24;18.70;93.90
68235;DHT22;55052;52.056;5.296;2023-10-09T08:26:00;18.80;93.90
68235;DHT22;55052;52.056;5.296;2023-10-09T08:28:43;18.80;93.80
68235;DHT22;55052;52.056;5.296;2023-10-09T08:31:12;18.80;93.80
68235;DHT22;55052;52.056;5.296;2023-10-09T08:33:46;18.80;93.80
68235;DHT22;55052;52.056;5.296;2023-10-09T08:36:26;18.90;93.80
68235;DHT22;55052;52.056;5.296;2023-10-09T08:39:03;19.00;93.70
68235;DHT22;55052;52.056;5.296;2023-10-09T08:41:53;19.00;93.70
68235;DHT22;55052;52.056;5.296;2023-10-09T08:44:20;19.00;93.60
68235;DHT22;55052;52.056;5.296;2023-10-09T08:46:53;19.10;93.60
68235;DHT22;55052;52.056;5.296;2023-10-09T08:49:21;19.10;93.50
68235;DHT22;55052;52.056;5.296;2023-10-09T08:51:50;19.20;93.50
68235;DHT22;55052;52.056;5.296;2023-10-09T08:54:19;19.20;93.40
68235;DHT22;55052;52.056;5.296;2023-10-09T08:56:46;19.30;93.40
68235;DHT22;55052;52.056;5.296;2023-10-09T08:59:20;19.30;93.40
68235;DHT22;55052;52.056;5.296;2023-10-09T09:01:48;19.40;93.30
68235;DHT22;55052;52.056;5.296;2023-10-09T09:04:37;19.40;93.30
68235;DHT22;55052;52.056;5.296;2023-10-09T09:07:06;19.50;93.10
68235;DHT22;55052;52.056;5.296;2023-10-09T09:09:56;19.60;93.00
68235;DHT22;55052;52.056;5.296;2023-10-09T09:12:45;19.60;92.90
68235;DHT22;55052;52.056;5.296;2023-10-09T09:15:16;19.60;92.80
68235;DHT22;55052;52.056;5.296;2023-10-09T09:17:47;19.70;92.70
68235;DHT22;55052;52.056;5.296;2023-10-09T09:20:25;19.70;93.00
68235;DHT22;55052;52.056;5.296;2023-10-09T09:22:58;19.80;92.50
68235;DHT22;55052;52.056;5.296;2023-10-09T09:25:46;19.80;92.40
68235;DHT22;55052;52.056;5.296;2023-10-09T09:28:26;19.90;92.30
68235;DHT22;55052;52.056;5.296;2023-10-09T09:30:53;19.90;92.30
68235;DHT22;55052;52.056;5.296;2023-10-09T09:33:24;20.00;92.20
68235;DHT22;55052;52.056;5.296;2023-10-09T09:36:10;20.00;92.10
68235;DHT22;55052;52.056;5.296;2023-10-09T09:38:38;20.00;92.00
68235;DHT22;55052;52.056;5.296;2023-10-09T09:41:18;20.10;92.00
68235;DHT22;55052;52.056;5.296;2023-10-09T09:43:56;20.10;91.90
68235;DHT22;55052;52.056;5.296;2023-10-09T09:46:24;20.20;91.80
68235;DHT22;55052;52.056;5.296;2023-10-09T09:49:05;20.20;91.70
68235;DHT22;55052;52.056;5.296;2023-10-09T09:51:34;20.30;91.70
68235;DHT22;55052;52.056;5.296;2023-10-09T09:54:01;20.30;91.50
68235;DHT22;55052;52.056;5.296;2023-10-09T09:56:29;20.30;91.40
68235;DHT22;55052;52.056;5.296;2023-10-09T09:59:02;20.40;91.20
68235;DHT22;55052;52.056;5.296;2023-10-09T10:01:32;20.40;91.10
68235;DHT22;55052;52.056;5.296;2023-10-09T10:04:07;20.40;91.00
68235;DHT22;55052;52.056;5.296;2023-10-09T10:06:43;20.50;91.00
68235;DHT22;55052;52.056;5.296;2023-10-09T10:09:38;20.50;90.90
68235;DHT22;55052;52.056;5.296;2023-10-09T10:12:09;20.60;90.80
68235;DHT22;55052;52.056;5.296;2023-10-09T10:14:56;20.60;90.80
68235;DHT22;55052;52.056;5.296;2023-10-09T10:17:26;20.70;90.70
68235;DHT22;55052;52.056;5.296;2023-10-09T10:22:48;20.70;90.70
68235;DHT22;55052;52.056;5.296;2023-10-09T10:28:22;20.80;90.40
68235;DHT22;55052;52.056;5.296;2023-10-09T10:31:10;20.80;90.30
68235;DHT22;55052;52.056;5.296;2023-10-09T10:34:06;20.90;90.20
68235;DHT22;55052;52.056;5.296;2023-10-09T10:36:37;20.90;90.00
68235;DHT22;55052;52.056;5.296;2023-10-09T10:39:09;20.90;90.30
68235;DHT22;55052;52.056;5.296;2023-10-09T10:41:55;21.00;89.80
68235;DHT22;55052;52.056;5.296;2023-10-09T10:44:28;21.00;89.40
68235;DHT22;55052;52.056;5.296;2023-10-09T10:47:07;21.00;89.20
68235;DHT22;55052;52.056;5.296;2023-10-09T10:49:55;21.10;88.70
68235;DHT22;55052;52.056;5.296;2023-10-09T10:52:26;21.10;88.40
68235;DHT22;55052;52.056;5.296;2023-10-09T10:55:10;21.10;88.20
68235;DHT22;55052;52.056;5.296;2023-10-09T10:57:55;21.20;88.00
68235;DHT22;55052;52.056;5.296;2023-10-09T11:00:23;21.20;87.90
68235;DHT22;55052;52.056;5.296;2023-10-09T11:03:09;21.20;87.70
68235;DHT22;55052;52.056;5.296;2023-10-09T11:05:45;21.30;87.50
68235;DHT22;55052;52.056;5.296;2023-10-09T11:08:19;21.30;87.30
68235;DHT22;55052;52.056;5.296;2023-10-09T11:10:50;21.30;87.30
68235;DHT22;55052;52.056;5.296;2023-10-09T11:13:24;21.30;87.00
68235;DHT22;55052;52.056;5.296;2023-10-09T11:15:58;21.40;86.90
68235;DHT22;55052;52.056;5.296;2023-10-09T11:18:42;21.40;86.70
68235;DHT22;55052;52.056;5.296;2023-10-09T11:21:15;21.40;87.20
68235;DHT22;55052;52.056;5.296;2023-10-09T11:23:42;21.40;86.20
68235;DHT22;55052;52.056;5.296;2023-10-09T11:26:18;21.40;86.00
68235;DHT22;55052;52.056;5.296;2023-10-09T11:32:03;21.40;85.50
68235;DHT22;55052;52.056;5.296;2023-10-09T11:34:29;21.50;85.60
68235;DHT22;55052;52.056;5.296;2023-10-09T11:37:00;21.40;85.10
68235;DHT22;55052;52.056;5.296;2023-10-09T11:39:31;21.50;85.30
68235;DHT22;55052;52.056;5.296;2023-10-09T11:42:06;21.50;85.30
68235;DHT22;55052;52.056;5.296;2023-10-09T11:44:41;21.60;85.30
68235;DHT22;55052;52.056;5.296;2023-10-09T11:47:12;21.50;85.00
68235;DHT22;55052;52.056;5.296;2023-10-09T11:52:55;21.60;84.80
68235;DHT22;55052;52.056;5.296;2023-10-09T11:55:40;21.60;84.60
68235;DHT22;55052;52.056;5.296;2023-10-09T11:58:08;21.60;85.30
68235;DHT22;55052;52.056;5.296;2023-10-09T12:00:35;21.60;85.20
68235;DHT22;55052;52.056;5.296;2023-10-09T12:03:12;21.60;85.30
68235;DHT22;55052;52.056;5.296;2023-10-09T12:05:41;21.60;85.30
68235;DHT22;55052;52.056;5.296;2023-10-09T12:08:12;21.70;85.40
68235;DHT22;55052;52.056;5.296;2023-10-09T12:10:42;21.80;85.70
68235;DHT22;55052;52.056;5.296;2023-10-09T12:13:09;21.80;85.40
68235;DHT22;55052;52.056;5.296;2023-10-09T12:15:36;21.80;85.30
68235;DHT22;55052;52.056;5.296;2023-10-09T12:18:07;21.90;85.10
68235;DHT22;55052;52.056;5.296;2023-10-09T12:20:42;21.90;84.90
68235;DHT22;55052;52.056;5.296;2023-10-09T12:23:11;21.90;84.80
68235;DHT22;55052;52.056;5.296;2023-10-09T12:25:41;21.90;84.50
68235;DHT22;55052;52.056;5.296;2023-10-09T12:28:11;21.90;84.40
68235;DHT22;55052;52.056;5.296;2023-10-09T12:30:42;21.90;84.50
68235;DHT22;55052;52.056;5.296;2023-10-09T12:33:09;21.90;84.40
68235;DHT22;55052;52.056;5.296;2023-10-09T12:35:39;21.90;84.40
68235;DHT22;55052;52.056;5.296;2023-10-09T12:38:07;21.90;84.10
68235;DHT22;55052;52.056;5.296;2023-10-09T12:40:37;21.90;84.10
68235;DHT22;55052;52.056;5.296;2023-10-09T12:43:06;21.90;84.20
68235;DHT22;55052;52.056;5.296;2023-10-09T12:45:42;21.80;84.00
68235;DHT22;55052;52.056;5.296;2023-10-09T12:48:09;21.80;84.10
68235;DHT22;55052;52.056;5.296;2023-10-09T12:50:36;21.80;84.20
68235;DHT22;55052;52.056;5.296;2023-10-09T12:53:11;21.80;84.20
68235;DHT22;55052;52.056;5.296;2023-10-09T12:55:44;21.70;84.10
68235;DHT22;55052;52.056;5.296;2023-10-09T12:58:11;21.80;84.30
68235;DHT22;55052;52.056;5.296;2023-10-09T13:00:47;21.80;84.30
68235;DHT22;55052;52.056;5.296;2023-10-09T13:03:18;21.80;84.40
68235;DHT22;55052;52.056;5.296;2023-10-09T13:05:47;21.70;84.50
68235;DHT22;55052;52.056;5.296;2023-10-09T13:08:27;21.80;84.60
68235;DHT22;55052;52.056;5.296;2023-10-09T13:11:04;21.80;84.50
68235;DHT22;55052;52.056;5.296;2023-10-09T13:13:39;21.80;84.30
68235;DHT22;55052;52.056;5.296;2023-10-09T13:18:41;21.80;84.20
68235;DHT22;55052;52.056;5.296;2023-10-09T13:21:24;21.70;84.20
68235;DHT22;55052;52.056;5.296;2023-10-09T13:23:53;21.80;84.30
68235;DHT22;55052;52.056;5.296;2023-10-09T13:26:24;21.70;84.20
68235;DHT22;55052;52.056;5.296;2023-10-09T13:29:01;21.80;84.20
68235;DHT22;55052;52.056;5.296;2023-10-09T13:31:30;21.80;84.30
68235;DHT22;55052;52.056;5.296;2023-10-09T13:34:01;21.70;84.20
68235;DHT22;55052;52.056;5.296;2023-10-09T13:36:33;21.70;84.20
68235;DHT22;55052;52.056;5.296;2023-10-09T13:39:05;21.70;84.10
68235;DHT22;55052;52.056;5.296;2023-10-09T13:41:56;21.70;84.20
68235;DHT22;55052;52.056;5.296;2023-10-09T13:46:59;21.70;84.00
68235;DHT22;55052;52.056;5.296;2023-10-09T13:49:28;21.70;84.00
68235;DHT22;55052;52.056;5.296;2023-10-09T13:52:02;21.70;83.90
68235;DHT22;55052;52.056;5.296;2023-10-09T13:54:30;21.70;83.90
68235;DHT22;55052;52.056;5.296;2023-10-09T13:57:01;21.60;84.70
68235;DHT22;55052;52.056;5.296;2023-10-09T13:59:35;21.60;83.90
68235;DHT22;55052;52.056;5.296;2023-10-09T14:02:03;21.60;83.90
68235;DHT22;55052;52.056;5.296;2023-10-09T14:04:37;21.60;84.00
68235;DHT22;55052;52.056;5.296;2023-10-09T14:07:04;21.60;83.90
68235;DHT22;55052;52.056;5.296;2023-10-09T14:09:35;21.60;83.90
68235;DHT22;55052;52.056;5.296;2023-10-09T14:12:06;21.60;83.80
68235;DHT22;55052;52.056;5.296;2023-10-09T14:14:42;21.60;83.60
68235;DHT22;55052;52.056;5.296;2023-10-09T14:17:20;21.60;83.70
68235;DHT22;55052;52.056;5.296;2023-10-09T14:19:52;21.60;83.90
68235;DHT22;55052;52.056;5.296;2023-10-09T14:22:21;21.60;83.90
68235;DHT22;55052;52.056;5.296;2023-10-09T14:24:51;21.60;83.80
68235;DHT22;55052;52.056;5.296;2023-10-09T14:27:26;21.60;84.70
68235;DHT22;55052;52.056;5.296;2023-10-09T14:29:56;21.60;84.70
68235;DHT22;55052;52.056;5.296;2023-10-09T14:32:26;21.60;84.00
68235;DHT22;55052;52.056;5.296;2023-10-09T14:35:01;21.60;83.90
68235;DHT22;55052;52.056;5.296;2023-10-09T14:37:28;21.60;84.00
68235;DHT22;55052;52.056;5.296;2023-10-09T14:39:56;21.60;83.90
68235;DHT22;55052;52.056;5.296;2023-10-09T14:42:24;21.60;83.80
68235;DHT22;55052;52.056;5.296;2023-10-09T14:44:54;21.60;83.90
68235;DHT22;55052;52.056;5.296;2023-10-09T14:47:22;21.60;83.90
68235;DHT22;55052;52.056;5.296;2023-10-09T14:49:49;21.60;83.60
68235;DHT22;55052;52.056;5.296;2023-10-09T14:52:17;21.60;83.70
68235;DHT22;55052;52.056;5.296;2023-10-09T14:54:45;21.50;83.60
68235;DHT22;55052;52.056;5.296;2023-10-09T14:57:13;21.50;83.60
68235;DHT22;55052;52.056;5.296;2023-10-09T14:59:40;21.50;83.60
68235;DHT22;55052;52.056;5.296;2023-10-09T15:02:09;21.50;83.70
68235;DHT22;55052;52.056;5.296;2023-10-09T15:04:39;21.50;83.80
68235;DHT22;55052;52.056;5.296;2023-10-09T15:07:06;21.50;83.90
68235;DHT22;55052;52.056;5.296;2023-10-09T15:09:34;21.50;84.00
68235;DHT22;55052;52.056;5.296;2023-10-09T15:12:03;21.50;84.00
68235;DHT22;55052;52.056;5.296;2023-10-09T15:14:34;21.40;84.00
68235;DHT22;55052;52.056;5.296;2023-10-09T15:17:01;21.40;84.00
68235;DHT22;55052;52.056;5.296;2023-10-09T15:19:29;21.40;84.10
68235;DHT22;55052;52.056;5.296;2023-10-09T15:21:57;21.40;84.10
68235;DHT22;55052;52.056;5.296;2023-10-09T15:24:26;21.40;84.20
68235;DHT22;55052;52.056;5.296;2023-10-09T15:26:57;21.40;84.20
68235;DHT22;55052;52.056;5.296;2023-10-09T15:29:25;21.40;84.30
68235;DHT22;55052;52.056;5.296;2023-10-09T15:31:55;21.40;84.20
68235;DHT22;55052;52.056;5.296;2023-10-09T15:34:22;21.40;84.40
68235;DHT22;55052;52.056;5.296;2023-10-09T15:36:51;21.40;84.40
68235;DHT22;55052;52.056;5.296;2023-10-09T15:39:20;21.40;84.50
68235;DHT22;55052;52.056;5.296;2023-10-09T15:41:48;21.40;84.50
68235;DHT22;55052;52.056;5.296;2023-10-09T15:44:15;21.40;84.50
68235;DHT22;55052;52.056;5.296;2023-10-09T15:46:43;21.40;84.60
68235;DHT22;55052;52.056;5.296;2023-10-09T15:49:13;21.40;84.60
68235;DHT22;55052;52.056;5.296;2023-10-09T15:51:43;21.40;84.60
68235;DHT22;55052;52.056;5.296;2023-10-09T15:54:10;21.40;85.50
68235;DHT22;55052;52.056;5.296;2023-10-09T15:56:39;21.40;84.60
68235;DHT22;55052;52.056;5.296;2023-10-09T15:59:16;21.40;84.70
68235;DHT22;55052;52.056;5.296;2023-10-09T16:01:43;21.40;84.60
68235;DHT22;55052;52.056;5.296;2023-10-09T16:04:11;21.30;84.70
68235;DHT22;55052;52.056;5.296;2023-10-09T16:06:38;21.30;84.70
68235;DHT22;55052;52.056;5.296;2023-10-09T16:09:06;21.30;84.80
68235;DHT22;55052;52.056;5.296;2023-10-09T16:11:38;21.20;84.80
68235;DHT22;55052;52.056;5.296;2023-10-09T16:14:06;21.20;84.90
68235;DHT22;55052;52.056;5.296;2023-10-09T16:16:37;21.20;85.00
68235;DHT22;55052;52.056;5.296;2023-10-09T16:19:09;21.20;85.10
68235;DHT22;55052;52.056;5.296;2023-10-09T16:21:39;21.20;85.10
68235;DHT22;55052;52.056;5.296;2023-10-09T16:24:07;21.20;85.20
68235;DHT22;55052;52.056;5.296;2023-10-09T16:26:36;21.20;85.20
68235;DHT22;55052;52.056;5.296;2023-10-09T16:29:09;21.10;86.10
68235;DHT22;55052;52.056;5.296;2023-10-09T16:31:36;21.10;85.30
68235;DHT22;55052;52.056;5.296;2023-10-09T16:34:07;21.10;85.30
68235;DHT22;55052;52.056;5.296;2023-10-09T16:36:34;21.10;85.40
68235;DHT22;55052;52.056;5.296;2023-10-09T16:39:04;21.00;85.40
68235;DHT22;55052;52.056;5.296;2023-10-09T16:41:31;21.00;85.50
68235;DHT22;55052;52.056;5.296;2023-10-09T16:44:07;21.00;85.50